createdAt,value
2023-02-22T00:00:59.791Z,100.00
2023-02-22T00:03:32.391Z,100.00
2023-02-22T00:06:04.298Z,100.00
2023-02-22T00:08:34.265Z,100.00
2023-02-22T00:11:10.218Z,100.00
2023-02-22T00:13:38.554Z,100.00
2023-02-22T00:16:06.988Z,100.00
2023-02-22T00:18:34.017Z,100.00
2023-02-22T00:21:01.922Z,100.00
2023-02-22T00:23:31.809Z,100.00
2023-02-22T00:26:01.155Z,100.00
2023-02-22T00:28:28.484Z,100.00
2023-02-22T00:30:55.536Z,100.00
2023-02-22T00:33:22.743Z,100.00
2023-02-22T00:35:49.773Z,100.00
2023-02-22T00:38:19.296Z,100.00
2023-02-22T00:40:46.475Z,100.00
2023-02-22T00:43:14.408Z,100.00
2023-02-22T00:45:42.506Z,100.00
2023-02-22T00:48:10.485Z,100.00
2023-02-22T00:50:37.870Z,100.00
2023-02-22T00:53:07.257Z,100.00
2023-02-22T00:55:37.013Z,100.00
2023-02-22T00:58:05.704Z,100.00
2023-02-22T01:00:40.064Z,100.00
2023-02-22T01:03:10.586Z,100.00
2023-02-22T01:05:38.259Z,100.00
2023-02-22T01:08:07.676Z,100.00
2023-02-22T01:10:36.478Z,100.00
2023-02-22T01:13:09.145Z,100.00
2023-02-22T01:15:39.417Z,100.00
2023-02-22T01:18:08.016Z,100.00
2023-02-22T01:20:35.891Z,100.00
2023-02-22T01:23:07.028Z,100.00
2023-02-22T01:25:35.817Z,100.00
2023-02-22T01:28:05.672Z,100.00
2023-02-22T01:30:36.120Z,100.00
2023-02-22T01:33:06.925Z,100.00
2023-02-22T01:35:38.478Z,100.00
2023-02-22T01:38:06.943Z,100.00
2023-02-22T01:40:38.560Z,100.00
2023-02-22T01:43:21.095Z,100.00
2023-02-22T01:46:01.433Z,100.00
2023-02-22T01:48:40.857Z,100.00
2023-02-22T01:51:23.449Z,100.00
2023-02-22T01:54:13.554Z,100.00
2023-02-22T01:56:47.944Z,100.00
2023-02-22T01:59:15.063Z,100.00
2023-02-22T02:01:45.650Z,100.00
2023-02-22T02:04:25.840Z,100.00
2023-02-22T02:06:59.990Z,100.00
2023-02-22T02:09:59.189Z,100.00
2023-02-22T02:12:30.422Z,100.00
2023-02-22T02:15:28.961Z,100.00
2023-02-22T02:18:00.810Z,100.00
2023-02-22T02:21:41.061Z,100.00
2023-02-22T02:24:51.580Z,100.00
2023-02-22T02:27:24.274Z,100.00
2023-02-22T02:30:29.755Z,100.00
2023-02-22T02:33:31.614Z,100.00
2023-02-22T02:36:12.502Z,100.00
2023-02-22T02:39:19.389Z,100.00
2023-02-22T02:41:50.996Z,100.00
2023-02-22T02:44:27.956Z,100.00
2023-02-22T02:47:25.297Z,100.00
2023-02-22T02:49:58.481Z,100.00
2023-02-22T02:52:27.443Z,100.00
2023-02-22T02:54:55.750Z,100.00
2023-02-22T02:57:24.637Z,100.00
2023-02-22T02:59:52.009Z,100.00
2023-02-22T03:02:41.765Z,100.00
2023-02-22T03:05:31.854Z,100.00
2023-02-22T03:08:59.063Z,100.00
2023-02-22T03:11:35.124Z,100.00
2023-02-22T03:14:10.863Z,100.00
2023-02-22T03:16:59.127Z,100.00
2023-02-22T03:19:45.903Z,100.00
2023-02-22T03:22:15.038Z,100.00
2023-02-22T03:25:12.378Z,100.00
2023-02-22T03:27:48.665Z,100.00
2023-02-22T03:30:26.782Z,100.00
2023-02-22T03:33:01.569Z,100.00
2023-02-22T03:35:48.158Z,100.00
2023-02-22T03:38:20.271Z,100.00
2023-02-22T03:40:54.391Z,100.00
2023-02-22T03:43:30.008Z,100.00
2023-02-22T03:46:03.711Z,100.00
2023-02-22T03:48:44.134Z,100.00
2023-02-22T03:51:17.182Z,100.00
2023-02-22T03:53:48.402Z,100.00
2023-02-22T03:56:23.693Z,100.00
2023-02-22T03:58:52.031Z,100.00
2023-02-22T04:01:19.963Z,100.00
2023-02-22T04:03:47.587Z,100.00
2023-02-22T04:06:16.482Z,100.00
2023-02-22T04:08:45.111Z,100.00
2023-02-22T04:11:12.129Z,100.00
2023-02-22T04:13:39.826Z,100.00
2023-02-22T04:16:07.104Z,100.00
2023-02-22T04:18:35.752Z,100.00
2023-02-22T04:21:03.675Z,100.00
2023-02-22T04:23:37.921Z,100.00
2023-02-22T04:26:06.033Z,100.00
2023-02-22T04:28:33.477Z,100.00
2023-02-22T04:31:19.503Z,100.00
2023-02-22T04:33:46.664Z,100.00
2023-02-22T04:36:17.338Z,100.00
2023-02-22T04:38:45.911Z,100.00
2023-02-22T04:41:13.501Z,100.00
2023-02-22T04:43:40.909Z,100.00
2023-02-22T04:46:17.839Z,100.00
2023-02-22T04:48:45.285Z,100.00
2023-02-22T04:51:14.453Z,100.00
2023-02-22T04:53:52.276Z,100.00
2023-02-22T04:56:20.237Z,100.00
2023-02-22T04:58:47.787Z,100.00
2023-02-22T05:01:16.605Z,100.00
2023-02-22T05:03:46.927Z,100.00
2023-02-22T05:06:13.934Z,100.00
2023-02-22T05:08:41.314Z,100.00
2023-02-22T05:11:09.685Z,100.00
2023-02-22T05:13:37.125Z,100.00
2023-02-22T05:16:04.819Z,100.00
2023-02-22T05:18:32.216Z,100.00
2023-02-22T05:20:59.607Z,100.00
2023-02-22T05:23:27.077Z,100.00
2023-02-22T05:25:54.435Z,100.00
2023-02-22T05:28:21.797Z,100.00
2023-02-22T05:30:49.133Z,100.00
2023-02-22T05:33:16.457Z,100.00
2023-02-22T05:35:43.900Z,100.00
2023-02-22T05:38:15.011Z,100.00
2023-02-22T05:40:43.078Z,100.00
2023-02-22T05:43:10.593Z,100.00
2023-02-22T05:45:37.985Z,100.00
2023-02-22T05:48:05.605Z,100.00
2023-02-22T05:50:33.290Z,100.00
2023-02-22T05:53:01.253Z,100.00
2023-02-22T05:55:28.185Z,100.00
2023-02-22T05:57:55.129Z,100.00
2023-02-22T06:00:31.785Z,100.00
2023-02-22T06:03:06.126Z,100.00
2023-02-22T06:05:33.920Z,100.00
2023-02-22T06:08:01.702Z,100.00
2023-02-22T06:10:29.023Z,100.00
2023-02-22T06:12:56.861Z,100.00
2023-02-22T06:15:26.614Z,100.00
2023-02-22T06:17:55.519Z,100.00
2023-02-22T06:20:25.570Z,100.00
2023-02-22T06:22:55.235Z,100.00
2023-02-22T06:25:26.489Z,100.00
2023-02-22T06:27:53.874Z,100.00
2023-02-22T06:30:24.082Z,100.00
2023-02-22T06:32:51.131Z,100.00
2023-02-22T06:35:18.484Z,100.00
2023-02-22T06:37:45.900Z,100.00
2023-02-22T06:40:14.287Z,100.00
2023-02-22T06:42:42.032Z,100.00
2023-02-22T06:45:09.926Z,100.00
2023-02-22T06:47:43.888Z,100.00
2023-02-22T06:50:31.446Z,100.00
2023-02-22T06:52:59.056Z,100.00
2023-02-22T06:55:29.227Z,100.00
2023-02-22T06:57:56.701Z,100.00
2023-02-22T07:00:25.938Z,100.00
2023-02-22T07:02:56.235Z,100.00
2023-02-22T07:05:25.431Z,100.00
2023-02-22T07:08:03.283Z,100.00
2023-02-22T07:10:33.319Z,100.00
2023-02-22T07:13:01.230Z,100.00
2023-02-22T07:15:32.631Z,100.00
2023-02-22T07:18:00.238Z,100.00
2023-02-22T07:20:29.618Z,100.00
2023-02-22T07:22:57.016Z,100.00
2023-02-22T07:25:24.932Z,100.00
2023-02-22T07:27:52.919Z,100.00
2023-02-22T07:30:25.281Z,100.00
2023-02-22T07:32:55.114Z,100.00
2023-02-22T07:35:32.308Z,100.00
2023-02-22T07:37:59.922Z,100.00
2023-02-22T07:40:27.979Z,100.00
2023-02-22T07:43:01.632Z,100.00
2023-02-22T07:45:34.501Z,100.00
2023-02-22T07:48:04.111Z,100.00
2023-02-22T07:50:33.109Z,100.00
2023-02-22T07:53:04.279Z,100.00
2023-02-22T07:55:33.421Z,100.00
2023-02-22T07:58:03.737Z,100.00
2023-02-22T08:00:35.859Z,100.00
2023-02-22T08:03:07.143Z,100.00
2023-02-22T08:05:36.935Z,100.00
2023-02-22T08:08:06.089Z,100.00
2023-02-22T08:10:35.094Z,100.00
2023-02-22T08:13:03.933Z,100.00
2023-02-22T08:15:38.054Z,100.00
2023-02-22T08:18:12.518Z,100.00
2023-02-22T08:20:42.147Z,100.00
2023-02-22T08:23:11.126Z,100.00
2023-02-22T08:25:38.508Z,100.00
2023-02-22T08:28:15.474Z,100.00
2023-02-22T08:30:43.752Z,100.00
2023-02-22T08:33:14.378Z,100.00
2023-02-22T08:35:42.354Z,100.00
2023-02-22T08:38:18.939Z,100.00
2023-02-22T08:40:47.380Z,100.00
2023-02-22T08:43:14.390Z,100.00
2023-02-22T08:45:42.231Z,100.00
2023-02-22T08:48:09.620Z,100.00
2023-02-22T08:50:38.071Z,100.00
2023-02-22T08:53:05.849Z,100.00
2023-02-22T08:55:37.356Z,100.00
2023-02-22T08:58:09.225Z,100.00
2023-02-22T09:00:38.774Z,100.00
2023-02-22T09:03:13.897Z,100.00
2023-02-22T09:05:43.170Z,100.00
2023-02-22T09:08:10.670Z,100.00
2023-02-22T09:10:38.276Z,100.00
2023-02-22T09:13:06.289Z,100.00
2023-02-22T09:15:37.699Z,100.00
2023-02-22T09:18:10.646Z,100.00
2023-02-22T09:20:38.028Z,100.00
2023-02-22T09:23:06.884Z,100.00
2023-02-22T09:25:34.328Z,100.00
2023-02-22T09:28:01.924Z,100.00
2023-02-22T09:30:34.886Z,100.00
2023-02-22T09:33:12.688Z,100.00
2023-02-22T09:35:42.358Z,100.00
2023-02-22T09:38:11.541Z,100.00
2023-02-22T09:40:46.718Z,100.00
2023-02-22T09:43:20.073Z,100.00
2023-02-22T09:46:13.488Z,100.00
2023-02-22T09:49:21.431Z,100.00
2023-02-22T09:52:08.309Z,100.00
2023-02-22T09:54:51.909Z,100.00
2023-02-22T09:57:29.135Z,100.00
2023-02-22T10:00:13.197Z,100.00
2023-02-22T10:03:21.643Z,100.00
2023-02-22T10:05:56.892Z,100.00
2023-02-22T10:08:31.190Z,100.00
2023-02-22T10:11:06.756Z,100.00
2023-02-22T10:14:15.053Z,100.00
2023-02-22T10:17:00.729Z,100.00
2023-02-22T10:20:06.124Z,100.00
2023-02-22T10:22:45.588Z,100.00
2023-02-22T10:25:14.780Z,100.00
2023-02-22T10:28:00.093Z,100.00
2023-02-22T10:30:38.606Z,100.00
2023-02-22T10:33:19.228Z,100.00
2023-02-22T10:35:47.351Z,100.00
2023-02-22T10:38:20.119Z,100.00
2023-02-22T10:40:51.324Z,100.00
2023-02-22T10:43:18.781Z,100.00
2023-02-22T10:45:46.155Z,100.00
2023-02-22T10:48:21.077Z,100.00
2023-02-22T10:50:48.736Z,100.00
2023-02-22T10:53:16.129Z,100.00
2023-02-22T10:56:22.817Z,100.00
2023-02-22T10:58:52.505Z,100.00
2023-02-22T11:01:40.739Z,100.00
2023-02-22T11:04:18.507Z,100.00
2023-02-22T11:07:10.320Z,100.00
2023-02-22T11:09:54.397Z,100.00
2023-02-22T11:12:37.665Z,100.00
2023-02-22T11:15:16.764Z,100.00
2023-02-22T11:17:45.568Z,100.00
2023-02-22T11:20:34.574Z,100.00
2023-02-22T11:23:04.094Z,100.00
2023-02-22T11:25:37.663Z,100.00
2023-02-22T11:28:14.986Z,100.00
2023-02-22T11:30:45.641Z,100.00
2023-02-22T11:33:25.727Z,100.00
2023-02-22T11:35:59.382Z,100.00
2023-02-22T11:38:31.927Z,100.00
2023-02-22T11:41:16.081Z,100.00
2023-02-22T11:43:48.241Z,100.00
2023-02-22T11:46:26.496Z,100.00
2023-02-22T11:49:14.087Z,100.00
2023-02-22T11:51:55.904Z,100.00
2023-02-22T11:54:34.581Z,100.00
2023-02-22T11:57:11.021Z,100.00
2023-02-22T11:59:41.146Z,100.00
2023-02-22T12:02:34.567Z,100.00
2023-02-22T12:05:08.230Z,100.00
2023-02-22T12:08:19.323Z,100.00
2023-02-22T12:11:18.441Z,100.00
2023-02-22T12:13:54.249Z,100.00
2023-02-22T12:16:32.067Z,100.00
2023-02-22T12:19:09.028Z,100.00
2023-02-22T12:21:42.528Z,100.00
2023-02-22T12:24:20.398Z,100.00
2023-02-22T12:27:16.510Z,100.00
2023-02-22T12:30:20.145Z,100.00
2023-02-22T12:32:52.808Z,100.00
2023-02-22T12:35:39.342Z,100.00
2023-02-22T12:38:23.162Z,100.00
2023-02-22T12:41:40.630Z,100.00
2023-02-22T12:44:33.451Z,100.00
2023-02-22T12:47:02.416Z,100.00
2023-02-22T12:49:49.726Z,100.00
2023-02-22T12:52:33.522Z,100.00
2023-02-22T12:55:47.924Z,100.00
2023-02-22T12:58:25.893Z,100.00
2023-02-22T13:01:07.194Z,100.00
2023-02-22T13:03:43.874Z,100.00
2023-02-22T13:06:53.490Z,100.00
2023-02-22T13:09:54.818Z,100.00
2023-02-22T13:12:52.351Z,100.00
2023-02-22T13:15:30.380Z,100.00
2023-02-22T13:18:32.196Z,100.00
2023-02-22T13:21:43.988Z,100.00
2023-02-22T13:24:27.265Z,100.00
2023-02-22T13:27:09.963Z,100.00
2023-02-22T13:29:44.897Z,100.00
2023-02-22T13:32:27.429Z,100.00
2023-02-22T13:35:28.957Z,76.83
2023-02-22T13:38:00.550Z,69.33
2023-02-22T13:40:46.286Z,79.36
2023-02-22T13:43:41.539Z,90.96
2023-02-22T13:46:19.128Z,100.00
2023-02-22T13:49:18.444Z,93.30
2023-02-22T13:51:51.723Z,100.00
2023-02-22T13:54:36.725Z,100.00
2023-02-22T13:57:27.689Z,100.00
2023-02-22T14:00:17.519Z,100.00
2023-02-22T14:03:14.185Z,100.00
2023-02-22T14:05:41.658Z,100.00
2023-02-22T14:08:17.528Z,100.00
2023-02-22T14:10:46.596Z,100.00
2023-02-22T14:13:17.164Z,93.76
2023-02-22T14:16:05.147Z,90.38
2023-02-22T14:18:45.148Z,89.13
2023-02-22T14:21:22.812Z,92.82
2023-02-22T14:23:52.361Z,95.21
2023-02-22T14:26:33.899Z,94.27
2023-02-22T14:29:02.771Z,98.65
2023-02-22T14:31:56.530Z,96.86
2023-02-22T14:34:54.006Z,91.28
2023-02-22T14:37:33.923Z,100.00
2023-02-22T14:40:27.880Z,100.00
2023-02-22T14:43:19.922Z,98.12
2023-02-22T14:45:53.505Z,98.02
2023-02-22T14:48:40.069Z,100.00
2023-02-22T14:51:29.923Z,100.00
2023-02-22T14:54:43.843Z,100.00
2023-02-22T14:57:29.611Z,100.00
2023-02-22T15:00:31.189Z,100.00
2023-02-22T15:03:00.823Z,100.00
2023-02-22T15:05:38.377Z,100.00
2023-02-22T15:08:09.533Z,100.00
2023-02-22T15:10:45.762Z,100.00
2023-02-22T15:13:18.610Z,100.00
2023-02-22T15:15:55.640Z,100.00
2023-02-22T15:18:39.846Z,100.00
2023-02-22T15:21:16.233Z,100.00
2023-02-22T15:23:57.075Z,100.00
2023-02-22T15:26:24.506Z,100.00
2023-02-22T15:28:59.784Z,100.00
2023-02-22T15:31:27.154Z,100.00
2023-02-22T15:33:55.428Z,100.00
2023-02-22T15:36:30.975Z,100.00
2023-02-22T15:38:58.502Z,100.00
2023-02-22T15:41:32.761Z,100.00
2023-02-22T15:44:23.073Z,100.00
2023-02-22T15:46:51.014Z,100.00
2023-02-22T15:49:23.240Z,100.00
2023-02-22T15:52:05.951Z,100.00
2023-02-22T15:54:44.331Z,100.00
2023-02-22T15:57:16.814Z,100.00
2023-02-22T15:59:50.110Z,100.00
2023-02-22T16:02:42.348Z,100.00
2023-02-22T16:05:17.590Z,100.00
2023-02-22T16:07:50.773Z,100.00
2023-02-22T16:10:29.781Z,100.00
2023-02-22T16:13:32.714Z,100.00
2023-02-22T16:16:20.768Z,100.00
2023-02-22T16:18:48.439Z,100.00
2023-02-22T16:21:21.836Z,100.00
2023-02-22T16:24:01.328Z,100.00
2023-02-22T16:26:35.013Z,100.00
2023-02-22T16:29:09.634Z,100.00
2023-02-22T16:31:40.524Z,100.00
2023-02-22T16:34:08.746Z,100.00
2023-02-22T16:36:49.062Z,100.00
2023-02-22T16:39:30.653Z,100.00
2023-02-22T16:42:01.496Z,100.00
2023-02-22T16:44:29.282Z,100.00
2023-02-22T16:46:59.735Z,100.00
2023-02-22T16:49:27.501Z,100.00
2023-02-22T16:51:59.752Z,100.00
2023-02-22T16:54:36.405Z,100.00
2023-02-22T16:57:04.984Z,100.00
2023-02-22T16:59:37.241Z,100.00
2023-02-22T17:02:07.598Z,100.00
2023-02-22T17:04:34.764Z,100.00
2023-02-22T17:07:04.808Z,100.00
2023-02-22T17:09:32.948Z,100.00
2023-02-22T17:12:00.525Z,100.00
2023-02-22T17:14:34.649Z,100.00
2023-02-22T17:17:01.908Z,100.00
2023-02-22T17:19:29.610Z,100.00
2023-02-22T17:21:57.116Z,100.00
2023-02-22T17:24:29.119Z,100.00
2023-02-22T17:26:57.455Z,100.00
2023-02-22T17:29:24.826Z,100.00
2023-02-22T17:31:52.905Z,100.00
2023-02-22T17:34:20.395Z,100.00
2023-02-22T17:36:48.469Z,100.00
2023-02-22T17:39:16.274Z,100.00
2023-02-22T17:41:43.681Z,100.00
2023-02-22T17:44:11.395Z,100.00
2023-02-22T17:46:40.816Z,100.00
2023-02-22T17:49:08.431Z,100.00
2023-02-22T17:51:35.433Z,100.00
2023-02-22T17:54:02.386Z,100.00
2023-02-22T17:56:29.764Z,100.00
2023-02-22T17:58:57.160Z,100.00
2023-02-22T18:01:32.258Z,100.00
2023-02-22T18:04:02.509Z,100.00
2023-02-22T18:06:32.607Z,100.00
2023-02-22T18:09:01.403Z,100.00
2023-02-22T18:11:32.493Z,100.00
2023-02-22T18:14:00.025Z,100.00
2023-02-22T18:16:27.650Z,100.00
2023-02-22T18:18:56.228Z,100.00
2023-02-22T18:21:24.033Z,100.00
2023-02-22T18:23:51.549Z,100.00
2023-02-22T18:26:20.951Z,100.00
2023-02-22T18:28:48.758Z,100.00
2023-02-22T18:31:19.509Z,100.00
2023-02-22T18:33:51.884Z,100.00
2023-02-22T18:36:23.030Z,100.00
2023-02-22T18:38:53.687Z,100.00
2023-02-22T18:41:25.913Z,100.00
2023-02-22T18:43:55.232Z,100.00
2023-02-22T18:46:24.531Z,100.00
2023-02-22T18:48:56.535Z,100.00
2023-02-22T18:51:24.755Z,100.00
2023-02-22T18:53:59.741Z,100.00
2023-02-22T18:56:30.073Z,100.00
2023-02-22T18:59:00.847Z,100.00
2023-02-22T19:01:29.443Z,100.00
2023-02-22T19:03:57.231Z,100.00
2023-02-22T19:06:24.718Z,100.00
2023-02-22T19:08:54.766Z,100.00
2023-02-22T19:11:24.648Z,100.00
2023-02-22T19:13:56.972Z,100.00
2023-02-22T19:16:26.423Z,100.00
2023-02-22T19:18:58.100Z,100.00
2023-02-22T19:21:28.479Z,100.00
2023-02-22T19:24:01.365Z,100.00
2023-02-22T19:26:29.495Z,100.00
2023-02-22T19:28:59.518Z,100.00
2023-02-22T19:31:31.537Z,100.00
2023-02-22T19:34:04.476Z,100.00
2023-02-22T19:36:31.897Z,100.00
2023-02-22T19:39:02.211Z,100.00
2023-02-22T19:41:30.150Z,100.00
2023-02-22T19:43:58.059Z,100.00
2023-02-22T19:46:25.515Z,100.00
2023-02-22T19:48:55.298Z,100.00
2023-02-22T19:51:26.339Z,100.00
2023-02-22T19:53:56.128Z,100.00
2023-02-22T19:56:27.079Z,100.00
2023-02-22T19:58:56.401Z,100.00
2023-02-22T20:01:29.993Z,100.00
2023-02-22T20:04:00.260Z,100.00
2023-02-22T20:06:34.585Z,100.00
2023-02-22T20:09:02.744Z,100.00
2023-02-22T20:11:30.225Z,100.00
2023-02-22T20:13:57.622Z,100.00
2023-02-22T20:16:25.243Z,100.00
2023-02-22T20:18:54.427Z,100.00
2023-02-22T20:21:33.428Z,100.00
2023-02-22T20:24:03.951Z,100.00
2023-02-22T20:26:33.912Z,100.00
2023-02-22T20:29:03.972Z,100.00
2023-02-22T20:31:32.650Z,100.00
2023-02-22T20:34:01.536Z,100.00
2023-02-22T20:36:30.971Z,100.00
2023-02-22T20:38:59.932Z,100.00
2023-02-22T20:41:33.237Z,100.00
2023-02-22T20:44:02.203Z,100.00
2023-02-22T20:46:36.098Z,100.00
2023-02-22T20:49:07.443Z,100.00
2023-02-22T20:51:35.431Z,100.00
2023-02-22T20:54:03.035Z,100.00
2023-02-22T20:56:31.953Z,100.00
2023-02-22T20:59:01.890Z,100.00
2023-02-22T21:01:29.617Z,100.00
2023-02-22T21:04:06.346Z,100.00
2023-02-22T21:06:35.568Z,100.00
2023-02-22T21:09:07.259Z,100.00
2023-02-22T21:11:34.926Z,100.00
2023-02-22T21:14:03.010Z,100.00
2023-02-22T21:16:35.290Z,100.00
2023-02-22T21:19:06.437Z,100.00
2023-02-22T21:21:34.990Z,100.00
2023-02-22T21:24:02.390Z,100.00
2023-02-22T21:26:32.455Z,100.00
2023-02-22T21:29:05.963Z,100.00
2023-02-22T21:31:34.555Z,100.00
2023-02-22T21:34:02.160Z,100.00
2023-02-22T21:36:30.189Z,100.00
2023-02-22T21:39:00.442Z,100.00
2023-02-22T21:41:30.245Z,100.00
2023-02-22T21:43:59.034Z,100.00
2023-02-22T21:46:29.234Z,100.00
2023-02-22T21:48:58.612Z,100.00
2023-02-22T21:51:33.496Z,100.00
2023-02-22T21:54:09.761Z,100.00
2023-02-22T21:56:39.855Z,100.00
2023-02-22T21:59:14.897Z,100.00
2023-02-22T22:01:47.440Z,100.00
2023-02-22T22:04:21.005Z,100.00
2023-02-22T22:06:51.543Z,100.00
2023-02-22T22:09:21.804Z,100.00
2023-02-22T22:11:53.681Z,100.00
2023-02-22T22:14:23.513Z,100.00
2023-02-22T22:16:58.531Z,100.00
2023-02-22T22:19:30.331Z,100.00
2023-02-22T22:21:58.216Z,100.00
2023-02-22T22:24:26.064Z,100.00
2023-02-22T22:26:56.624Z,100.00
2023-02-22T22:29:28.387Z,100.00
2023-02-22T22:31:56.142Z,100.00
2023-02-22T22:34:29.423Z,100.00
2023-02-22T22:37:00.382Z,100.00
2023-02-22T22:39:28.026Z,100.00
2023-02-22T22:41:55.485Z,100.00
2023-02-22T22:44:23.090Z,100.00
2023-02-22T22:46:53.474Z,100.00
2023-02-22T22:49:23.269Z,100.00
2023-02-22T22:51:51.124Z,100.00
2023-02-22T22:54:18.470Z,100.00
2023-02-22T22:56:45.411Z,100.00
2023-02-22T22:59:13.445Z,100.00
2023-02-22T23:01:44.517Z,100.00
2023-02-22T23:04:16.288Z,100.00
2023-02-22T23:06:51.992Z,100.00
2023-02-22T23:09:30.402Z,100.00
2023-02-22T23:12:08.603Z,100.00
2023-02-22T23:14:45.405Z,100.00
2023-02-22T23:17:16.088Z,100.00
2023-02-22T23:19:45.087Z,100.00
2023-02-22T23:22:14.153Z,100.00
2023-02-22T23:24:44.319Z,100.00
2023-02-22T23:27:12.254Z,100.00
2023-02-22T23:29:42.560Z,100.00
2023-02-22T23:32:10.118Z,100.00
2023-02-22T23:34:41.053Z,100.00
2023-02-22T23:37:10.711Z,100.00
2023-02-22T23:39:38.684Z,100.00
2023-02-22T23:42:08.731Z,100.00
2023-02-22T23:44:36.119Z,100.00
2023-02-22T23:47:03.839Z,100.00
2023-02-22T23:49:38.417Z,100.00
2023-02-22T23:52:08.227Z,100.00
2023-02-22T23:54:40.243Z,100.00
2023-02-22T23:57:08.795Z,100.00
2023-02-22T23:59:36.419Z,100.00
